Terminal Aerodrome Forecast
Issued by NWS Sterling, VA

Home | Current Version | Previous Version | Text Only | Print | Product List | Glossary On
Versions: 1 2 3 4 5 6 7 8 9 10 11 12 13 14 15 16 17 18 19 20 21 22 23 24
102
FTUS41 KLWX 181458 AAA
TAFIAD
TAF AMD
KIAD 181458Z 1815/1918 19011G19KT P6SM SCT110 OVC250
     FM190000 19015G26KT P6SM SCT040 OVC250
     FM190300 19018G31KT P6SM -SHRA SCT035 OVC110
     FM190800 23017G29KT 6SM -SHRA SCT025 OVC060
     FM191100 27018G32KT 6SM -SHRA SCT040 BKN070
     FM191200 29020G35KT P6SM SCT040 BKN150=

USA.gov is the U.S. government's official web portal to all federal, state and local government web resources and services.